Time;durP1;ratioP1;P1;durP2;ratioP2;P2;SDS_P1;SDS_P2;PMS_P1;PMS_P2;Temp;Humidity;BMP_temperature;BMP_pressure;BME280_temperature;BME280_humidity;BME280_pressure;Samples;Min_cycle;Max_cycle;Signal;HPM_P1;HPM_P2
2021/12/18 00:01:24;;;;;;;90.60;11.57;;;7.20;99.90;;;;;;4953805;28;20057;-84
2021/12/18 00:03:50;;;;;;;49.92;8.98;;;7.20;99.90;;;;;;4948609;28;20554;-84
2021/12/18 00:06:16;;;;;;;59.95;9.90;;;7.20;99.90;;;;;;4969062;28;20085;-84
2021/12/18 00:08:42;;;;;;;50.05;8.90;;;7.20;99.90;;;;;;4949317;28;20046;-83
2021/12/18 00:11:09;;;;;;;70.45;9.55;;;7.20;99.90;;;;;;4954392;28;20050;-83
2021/12/18 00:13:35;;;;;;;54.25;8.82;;;7.20;99.90;;;;;;4929115;28;20475;-82
2021/12/18 00:16:01;;;;;;;95.85;9.38;;;7.20;99.90;;;;;;4959129;28;20475;-84
2021/12/18 00:18:27;;;;;;;39.75;7.90;;;7.20;99.90;;;;;;4970740;28;20556;-82
2021/12/18 00:20:53;;;;;;;106.70;9.70;;;7.20;99.90;;;;;;4936173;28;20556;-83
2021/12/18 00:23:19;;;;;;;113.82;7.80;;;7.10;99.90;;;;;;4966716;28;20068;-83
2021/12/18 00:25:45;;;;;;;57.35;7.38;;;7.10;99.90;;;;;;4963370;28;20098;-83
2021/12/18 00:28:11;;;;;;;28.77;5.68;;;7.10;99.90;;;;;;4935289;28;20074;-83
2021/12/18 00:30:38;;;;;;;55.08;6.22;;;7.10;99.90;;;;;;4976654;28;20046;-82
2021/12/18 00:33:05;;;;;;;165.07;7.85;;;7.00;99.90;;;;;;4967834;28;20134;-82
2021/12/18 00:35:33;;;;;;;42.58;5.80;;;6.90;99.90;;;;;;4953356;28;20233;-84
2021/12/18 00:38:06;;;;;;;35.03;4.47;;;6.90;99.90;;;;;;4952097;28;20039;-84
2021/12/18 00:40:45;;;;;;;28.25;4.30;;;6.90;99.90;;;;;;4950021;28;20039;-83
2021/12/18 00:43:29;;;;;;;28.55;3.63;;;6.90;99.90;;;;;;4956890;28;20403;-83
2021/12/18 00:45:55;;;;;;;42.03;4.05;;;6.80;99.90;;;;;;4944543;28;20038;-83
2021/12/18 00:48:21;;;;;;;97.43;4.78;;;6.80;99.90;;;;;;4953440;28;20097;-83
2021/12/18 00:50:48;;;;;;;48.63;4.63;;;6.70;99.90;;;;;;4961864;28;20047;-83
2021/12/18 00:53:14;;;;;;;81.30;5.10;;;6.70;99.90;;;;;;4946326;28;20404;-83
2021/12/18 00:55:40;;;;;;;17.48;3.85;;;6.70;99.90;;;;;;4961123;28;20311;-83
2021/12/18 00:58:06;;;;;;;69.13;5.43;;;6.70;99.90;;;;;;4947100;28;20043;-83
2021/12/18 01:00:33;;;;;;;51.00;5.43;;;6.60;99.90;;;;;;4967737;28;20043;-84
2021/12/18 01:03:02;;;;;;;47.97;4.63;;;6.60;99.90;;;;;;4966973;28;20713;-83
2021/12/18 01:05:30;;;;;;;59.25;5.13;;;6.70;99.90;;;;;;4949179;28;20058;-83
2021/12/18 01:07:58;;;;;;;54.47;4.75;;;6.70;99.90;;;;;;4942499;28;20039;-82
2021/12/18 01:12:57;;;;;;;50.75;5.20;;;6.70;99.90;;;;;;4952539;28;21324;-83
2021/12/18 01:15:35;;;;;;;75.85;7.05;;;6.60;99.90;;;;;;4964903;28;20568;-84
2021/12/18 01:23:33;;;;;;;10.20;3.60;;;6.60;99.90;;;;;;4957448;28;20398;-82
2021/12/18 01:25:59;;;;;;;19.10;4.28;;;6.60;99.90;;;;;;4964354;28;20461;-83
2021/12/18 01:28:25;;;;;;;13.35;3.13;;;6.60;99.90;;;;;;4949923;28;20130;-83
2021/12/18 01:30:52;;;;;;;12.07;3.28;;;6.60;99.90;;;;;;4945915;28;20043;-83
2021/12/18 01:33:18;;;;;;;11.38;2.97;;;6.60;99.90;;;;;;4933705;28;20557;-83
2021/12/18 01:35:43;;;;;;;16.08;3.20;;;6.60;99.90;;;;;;4964837;28;20054;-83
2021/12/18 01:38:10;;;;;;;15.27;3.75;;;6.60;99.90;;;;;;4941905;28;20039;-83
2021/12/18 01:40:36;;;;;;;22.02;3.60;;;6.60;99.90;;;;;;4921992;28;20050;-83
2021/12/18 01:51:25;;;;;;;17.02;2.83;;;6.60;99.90;;;;;;4963503;28;20082;-83
2021/12/18 01:53:55;;;;;;;33.92;3.55;;;6.70;99.90;;;;;;4936424;28;20062;-82
2021/12/18 01:56:22;;;;;;;15.70;2.78;;;6.60;99.90;;;;;;4957589;28;20045;-83
2021/12/18 01:58:50;;;;;;;19.63;3.22;;;6.70;99.90;;;;;;4968949;28;20415;-83
2021/12/18 02:01:16;;;;;;;16.52;2.97;;;6.60;99.90;;;;;;4967561;28;20035;-83
2021/12/18 02:03:43;;;;;;;13.65;2.75;;;6.60;99.90;;;;;;4937361;28;20275;-82
2021/12/18 02:06:09;;;;;;;17.42;3.17;;;6.60;99.90;;;;;;4976878;28;20069;-82
2021/12/18 02:08:38;;;;;;;22.83;2.63;;;6.60;99.90;;;;;;4949903;28;20075;-82
2021/12/18 02:21:45;;;;;;;19.58;3.30;;;6.60;99.90;;;;;;4952806;28;20047;-83
2021/12/18 02:24:11;;;;;;;14.45;3.35;;;6.60;99.90;;;;;;4944399;28;20038;-83
2021/12/18 02:26:37;;;;;;;14.65;3.38;;;6.60;99.90;;;;;;4956097;28;20629;-83
2021/12/18 02:29:05;;;;;;;17.67;3.22;;;6.60;99.90;;;;;;4947353;28;20118;-82
2021/12/18 02:31:31;;;;;;;18.83;3.47;;;6.60;99.90;;;;;;4961984;28;20044;-83
2021/12/18 02:33:58;;;;;;;37.88;3.97;;;6.60;99.90;;;;;;4966848;28;20038;-83
2021/12/18 02:36:25;;;;;;;38.55;3.20;;;6.60;99.90;;;;;;4943121;28;20035;-83
2021/12/18 02:39:05;;;;;;;40.17;4.05;;;6.60;99.90;;;;;;4956000;28;20062;-83
2021/12/18 02:41:44;;;;;;;38.80;3.60;;;6.60;99.90;;;;;;4949645;28;21605;-83
2021/12/18 02:44:12;;;;;;;22.38;3.38;;;6.60;99.90;;;;;;4963761;28;20066;-83
2021/12/18 02:46:39;;;;;;;13.23;2.88;;;6.60;99.90;;;;;;4944081;28;20030;-83
2021/12/18 02:49:12;;;;;;;11.80;3.03;;;6.60;99.90;;;;;;4943189;28;20035;-83
2021/12/18 02:51:38;;;;;;;18.95;3.10;;;6.50;99.90;;;;;;4945182;28;20561;-83
2021/12/18 02:56:38;;;;;;;12.57;2.60;;;6.50;99.90;;;;;;4966359;28;20485;-83
2021/12/18 02:59:08;;;;;;;14.63;2.38;;;6.50;99.90;;;;;;4941761;28;20049;-82
2021/12/18 03:01:36;;;;;;;12.32;2.65;;;6.50;99.90;;;;;;4950873;28;20561;-83
2021/12/18 03:04:12;;;;;;;10.65;2.13;;;6.50;99.90;;;;;;4947128;28;20038;-83
2021/12/18 03:06:39;;;;;;;17.48;2.63;;;6.50;99.90;;;;;;4929953;28;20073;-83
2021/12/18 03:25:23;;;;;;;28.52;2.40;;;6.40;99.90;;;;;;4947477;28;20077;-82
2021/12/18 03:27:49;;;;;;;10.70;2.50;;;6.40;99.90;;;;;;4931843;28;20081;-82
2021/12/18 03:30:15;;;;;;;10.88;2.35;;;6.40;99.90;;;;;;4942886;28;20081;-83
2021/12/18 03:32:42;;;;;;;11.18;2.25;;;6.40;99.90;;;;;;4944074;28;20043;-82
2021/12/18 03:35:08;;;;;;;12.43;2.58;;;6.40;99.90;;;;;;4946109;28;20133;-83
2021/12/18 03:37:35;;;;;;;21.00;2.55;;;6.30;99.90;;;;;;4939021;28;20126;-83
2021/12/18 03:40:06;;;;;;;14.18;2.47;;;6.30;99.90;;;;;;4945878;28;20038;-83
2021/12/18 03:42:32;;;;;;;14.75;2.38;;;6.30;99.90;;;;;;4927561;28;20090;-82
2021/12/18 03:44:58;;;;;;;22.88;2.80;;;6.30;99.90;;;;;;4945808;28;20042;-82
2021/12/18 03:47:24;;;;;;;17.05;1.92;;;6.30;99.90;;;;;;4946220;28;20140;-81
2021/12/18 03:49:50;;;;;;;13.60;2.72;;;6.30;99.90;;;;;;4948308;28;20043;-82
2021/12/18 03:52:16;;;;;;;10.48;2.28;;;6.30;99.90;;;;;;4912379;28;20038;-83
2021/12/18 03:54:41;;;;;;;11.68;2.00;;;6.30;99.90;;;;;;4925333;28;20043;-82
2021/12/18 03:57:07;;;;;;;11.38;2.40;;;6.30;99.90;;;;;;4939146;28;20430;-82
2021/12/18 03:59:33;;;;;;;9.85;2.25;;;6.30;99.90;;;;;;4933127;28;20101;-83
2021/12/18 04:01:59;;;;;;;7.82;1.83;;;6.30;99.90;;;;;;4928346;28;20034;-82
2021/12/18 04:04:25;;;;;;;11.07;1.85;;;6.30;99.90;;;;;;4942094;28;20047;-82
2021/12/18 04:06:51;;;;;;;11.95;2.30;;;6.30;99.90;;;;;;4928426;28;20045;-82
2021/12/18 04:09:17;;;;;;;24.67;3.03;;;6.30;99.90;;;;;;4930655;28;20482;-83
2021/12/18 04:11:43;;;;;;;14.23;2.80;;;6.30;99.90;;;;;;4946867;28;20050;-83
2021/12/18 04:14:10;;;;;;;10.20;2.10;;;6.30;99.90;;;;;;4933526;28;20050;-83
2021/12/18 04:16:37;;;;;;;11.93;2.33;;;6.30;99.90;;;;;;4949337;28;20046;-82
2021/12/18 04:19:03;;;;;;;14.30;2.92;;;6.30;99.90;;;;;;4949395;28;20056;-82
2021/12/18 04:21:30;;;;;;;12.10;2.40;;;6.30;99.90;;;;;;4945153;28;20034;-83
2021/12/18 04:23:57;;;;;;;14.15;2.88;;;6.30;99.90;;;;;;4945434;28;20125;-84
2021/12/18 04:26:22;;;;;;;8.38;2.33;;;6.30;99.90;;;;;;4967744;28;20561;-83
2021/12/18 04:28:48;;;;;;;11.93;2.13;;;6.20;99.90;;;;;;4934065;28;20045;-83
2021/12/18 04:31:14;;;;;;;15.85;2.80;;;6.20;99.90;;;;;;4928859;28;20043;-82
2021/12/18 04:33:40;;;;;;;12.00;2.80;;;6.20;99.90;;;;;;4926567;28;20038;-83
2021/12/18 04:36:07;;;;;;;15.63;2.72;;;6.20;99.90;;;;;;4961017;28;20053;-83
2021/12/18 04:38:33;;;;;;;19.80;2.90;;;6.20;99.90;;;;;;4930642;28;20055;-83
2021/12/18 04:40:59;;;;;;;10.10;2.67;;;6.20;99.90;;;;;;4932418;28;20056;-83
2021/12/18 04:43:25;;;;;;;12.68;2.85;;;6.30;99.90;;;;;;4959848;28;20042;-83
2021/12/18 04:45:51;;;;;;;11.85;2.65;;;6.30;99.90;;;;;;4958578;28;20057;-83
2021/12/18 04:48:17;;;;;;;16.30;2.30;;;6.30;99.90;;;;;;4927964;28;20038;-83
2021/12/18 04:50:43;;;;;;;24.60;2.95;;;6.20;99.90;;;;;;4956364;28;20488;-83
2021/12/18 04:53:10;;;;;;;14.60;2.42;;;6.30;99.90;;;;;;4948634;28;20057;-83
2021/12/18 04:55:36;;;;;;;17.17;3.00;;;6.20;99.90;;;;;;4941487;28;20049;-83
2021/12/18 04:58:02;;;;;;;9.15;2.40;;;6.20;99.90;;;;;;4946971;28;20030;-83
2021/12/18 05:00:37;;;;;;;16.35;2.92;;;6.20;99.90;;;;;;4928696;28;20103;-83
2021/12/18 05:03:06;;;;;;;18.02;2.67;;;6.20;99.90;;;;;;4941846;28;20038;-82
2021/12/18 05:05:32;;;;;;;14.10;2.60;;;6.20;99.90;;;;;;4929304;28;20275;-83
2021/12/18 05:07:58;;;;;;;15.18;3.05;;;6.20;99.90;;;;;;4927077;28;20038;-82
2021/12/18 05:10:24;;;;;;;22.95;2.85;;;6.20;99.90;;;;;;4941787;28;20035;-83
2021/12/18 05:12:50;;;;;;;34.75;3.40;;;6.30;99.90;;;;;;4960480;28;20038;-83
2021/12/18 05:15:15;;;;;;;33.78;3.30;;;6.30;99.90;;;;;;4927615;28;20050;-83
2021/12/18 05:17:41;;;;;;;15.57;2.78;;;6.30;99.90;;;;;;4930042;28;20693;-83
2021/12/18 05:20:07;;;;;;;16.23;3.15;;;6.30;99.90;;;;;;4930217;28;20466;-82
2021/12/18 05:22:33;;;;;;;26.15;3.63;;;6.30;99.90;;;;;;4942376;28;20039;-84
2021/12/18 05:24:59;;;;;;;12.07;2.40;;;6.30;99.90;;;;;;4935115;28;20057;-84
2021/12/18 05:27:25;;;;;;;20.30;3.17;;;6.30;99.90;;;;;;4932042;28;20035;-84
2021/12/18 05:29:51;;;;;;;25.75;3.80;;;6.30;99.90;;;;;;4949388;28;20047;-84
2021/12/18 05:32:17;;;;;;;59.15;4.15;;;6.30;99.90;;;;;;4947070;28;20038;-84
2021/12/18 05:34:42;;;;;;;16.95;3.13;;;6.30;99.90;;;;;;4946270;28;20642;-84
2021/12/18 05:37:32;;;;;;;16.77;2.90;;;6.30;99.90;;;;;;4927140;28;20041;-84
2021/12/18 05:39:58;;;;;;;32.90;3.35;;;6.30;99.90;;;;;;4948003;28;20034;-83
2021/12/18 05:42:24;;;;;;;13.68;2.90;;;6.40;99.90;;;;;;4949288;28;20047;-83
2021/12/18 05:44:50;;;;;;;33.15;3.17;;;6.40;99.90;;;;;;4961117;28;20038;-84
2021/12/18 05:47:16;;;;;;;27.90;2.95;;;6.40;99.90;;;;;;4943225;28;20046;-84
2021/12/18 05:49:42;;;;;;;14.90;2.83;;;6.40;99.90;;;;;;4950474;28;20042;-83
2021/12/18 05:52:08;;;;;;;12.30;2.60;;;6.40;99.90;;;;;;4947229;28;20049;-83
2021/12/18 05:54:36;;;;;;;21.80;2.70;;;6.40;99.90;;;;;;4931984;28;20101;-84
2021/12/18 05:57:06;;;;;;;25.33;2.50;;;6.40;99.90;;;;;;4946555;28;20121;-83
2021/12/18 05:59:32;;;;;;;25.38;3.15;;;6.40;99.90;;;;;;4930246;28;20151;-83
2021/12/18 06:01:58;;;;;;;14.20;2.53;;;6.40;99.90;;;;;;4923851;28;20069;-84
2021/12/18 06:04:24;;;;;;;13.95;2.58;;;6.40;99.90;;;;;;4941132;28;21918;-84
2021/12/18 06:06:49;;;;;;;24.25;2.90;;;6.40;99.90;;;;;;4932489;28;20066;-84
2021/12/18 06:09:16;;;;;;;20.80;2.65;;;6.40;99.90;;;;;;4922507;28;20134;-83
2021/12/18 06:11:42;;;;;;;18.90;3.47;;;6.40;99.90;;;;;;4962064;28;20050;-84
2021/12/18 06:14:08;;;;;;;15.32;2.40;;;6.40;99.90;;;;;;4944331;28;20478;-83
2021/12/18 06:16:34;;;;;;;19.02;2.53;;;6.40;99.90;;;;;;4925866;28;20382;-84
2021/12/18 06:19:00;;;;;;;19.83;2.78;;;6.50;99.90;;;;;;4945821;28;20049;-83
2021/12/18 06:21:26;;;;;;;23.48;2.97;;;6.50;99.90;;;;;;4940535;28;20070;-84
2021/12/18 06:23:54;;;;;;;18.33;2.90;;;6.40;99.90;;;;;;4943448;28;20061;-83
2021/12/18 06:26:22;;;;;;;14.40;2.67;;;6.50;99.90;;;;;;4940848;28;20403;-84
2021/12/18 06:28:48;;;;;;;36.13;3.60;;;6.50;99.90;;;;;;4941144;28;20034;-84
2021/12/18 06:31:14;;;;;;;19.98;2.75;;;6.50;99.90;;;;;;4961834;28;20080;-84
2021/12/18 06:33:40;;;;;;;28.92;3.17;;;6.50;99.90;;;;;;4934795;28;20216;-84
2021/12/18 06:36:06;;;;;;;16.30;3.00;;;6.50;99.90;;;;;;4933591;28;20046;-84
2021/12/18 06:38:31;;;;;;;17.83;3.08;;;6.50;99.90;;;;;;4930834;28;20042;-84
2021/12/18 06:40:57;;;;;;;15.15;3.25;;;6.50;99.90;;;;;;4946294;28;20598;-84
2021/12/18 06:43:23;;;;;;;23.77;3.40;;;6.50;99.90;;;;;;4949904;28;20382;-84
2021/12/18 06:45:49;;;;;;;26.00;3.10;;;6.50;99.90;;;;;;4947154;28;20030;-85
2021/12/18 06:48:15;;;;;;;30.90;3.22;;;6.50;99.90;;;;;;4958132;28;20042;-84
2021/12/18 06:50:41;;;;;;;24.55;3.00;;;6.50;99.90;;;;;;4948818;28;20034;-84
2021/12/18 06:53:07;;;;;;;23.52;3.35;;;6.50;99.90;;;;;;4962001;28;20737;-84
2021/12/18 06:55:34;;;;;;;25.80;3.60;;;6.60;99.90;;;;;;4965582;28;20053;-84
2021/12/18 06:58:00;;;;;;;30.67;3.67;;;6.60;99.90;;;;;;4958389;28;20098;-84
2021/12/18 07:00:27;;;;;;;29.88;4.22;;;6.60;99.90;;;;;;4946785;28;20478;-84
2021/12/18 07:02:54;;;;;;;48.20;5.05;;;6.60;99.90;;;;;;4962087;28;20046;-84
2021/12/18 07:05:20;;;;;;;46.20;4.38;;;6.60;99.90;;;;;;4968943;28;20184;-84
2021/12/18 07:07:46;;;;;;;38.58;4.70;;;6.60;99.90;;;;;;4929675;28;20532;-84
2021/12/18 07:10:13;;;;;;;38.67;4.72;;;6.60;99.90;;;;;;4930973;28;20065;-84
2021/12/18 07:12:40;;;;;;;34.20;4.60;;;6.60;99.90;;;;;;4959917;28;20394;-84
2021/12/18 07:15:07;;;;;;;42.05;4.50;;;6.60;99.90;;;;;;4929429;28;20539;-85
2021/12/18 07:17:33;;;;;;;38.40;4.40;;;6.60;99.90;;;;;;4953528;28;20113;-85
2021/12/18 07:19:59;;;;;;;36.08;4.30;;;6.60;99.90;;;;;;4938258;28;20523;-86
2021/12/18 07:22:25;;;;;;;35.38;4.40;;;6.60;99.90;;;;;;4936476;28;20245;-85
2021/12/18 07:24:51;;;;;;;43.65;4.45;;;6.60;99.90;;;;;;4966737;28;20061;-85
2021/12/18 07:27:16;;;;;;;36.65;4.75;;;6.60;99.90;;;;;;4962244;28;20034;-86
2021/12/18 07:29:42;;;;;;;37.67;4.28;;;6.60;99.90;;;;;;4936036;28;20070;-85
2021/12/18 07:32:08;;;;;;;21.38;4.10;;;6.70;99.90;;;;;;4923663;28;20069;-85
2021/12/18 07:34:34;;;;;;;28.63;4.45;;;6.70;99.90;;;;;;4963971;28;20039;-86
2021/12/18 07:36:59;;;;;;;18.30;3.92;;;6.70;99.90;;;;;;4931589;28;20134;-85
2021/12/18 07:39:25;;;;;;;49.65;4.53;;;6.70;99.90;;;;;;4946869;28;20043;-85
2021/12/18 07:41:51;;;;;;;42.10;5.20;;;6.70;99.90;;;;;;4933802;28;20064;-84
2021/12/18 07:44:17;;;;;;;45.08;7.05;;;6.70;99.90;;;;;;4943334;28;20044;-85
2021/12/18 07:46:43;;;;;;;33.30;7.47;;;6.80;99.90;;;;;;4963726;28;20038;-85
2021/12/18 07:49:09;;;;;;;34.92;8.85;;;6.80;99.90;;;;;;4959564;28;20041;-85
2021/12/18 07:51:36;;;;;;;33.83;8.18;;;6.80;99.90;;;;;;4940355;28;20042;-85
2021/12/18 07:54:02;;;;;;;30.63;6.82;;;6.80;99.90;;;;;;4974046;28;20573;-85
2021/12/18 07:56:28;;;;;;;60.70;6.78;;;6.80;99.90;;;;;;4964200;28;20045;-85
2021/12/18 07:58:54;;;;;;;56.25;6.38;;;6.80;99.90;;;;;;4919865;28;20486;-85
2021/12/18 08:01:20;;;;;;;29.42;5.50;;;6.90;99.90;;;;;;4948418;28;20039;-85
2021/12/18 08:03:46;;;;;;;65.03;6.70;;;6.80;99.90;;;;;;4939976;28;20042;-85
2021/12/18 08:06:11;;;;;;;35.05;5.25;;;6.80;99.90;;;;;;4953947;28;20049;-85
2021/12/18 08:08:37;;;;;;;47.78;6.70;;;6.90;99.90;;;;;;4936562;28;20034;-85
2021/12/18 08:11:04;;;;;;;40.58;6.60;;;6.90;99.90;;;;;;4956196;28;20042;-85
2021/12/18 08:13:30;;;;;;;41.80;7.07;;;6.90;99.90;;;;;;4967098;28;20072;-86
2021/12/18 08:15:56;;;;;;;56.42;7.03;;;6.90;99.90;;;;;;4957105;28;20038;-85
2021/12/18 08:18:21;;;;;;;36.47;7.22;;;7.00;99.90;;;;;;4921470;28;20494;-85
2021/12/18 08:20:47;;;;;;;47.05;6.97;;;7.00;99.90;;;;;;4934019;28;20042;-85
2021/12/18 08:23:13;;;;;;;39.95;7.22;;;7.00;99.90;;;;;;4954045;28;20038;-83
2021/12/18 08:25:39;;;;;;;30.48;7.05;;;7.00;99.90;;;;;;4935581;28;20082;-84
2021/12/18 08:28:06;;;;;;;27.58;6.85;;;7.00;99.90;;;;;;4937515;28;20121;-84
2021/12/18 08:30:36;;;;;;;43.60;8.45;;;7.00;99.90;;;;;;4937235;28;20122;-84
2021/12/18 08:33:02;;;;;;;29.17;7.72;;;7.00;99.90;;;;;;4955377;28;20042;-84
2021/12/18 08:35:30;;;;;;;31.83;7.28;;;7.10;99.90;;;;;;4936501;28;20041;-84
2021/12/18 08:37:58;;;;;;;44.50;8.65;;;7.10;99.90;;;;;;4952844;28;20066;-84
2021/12/18 08:40:25;;;;;;;43.10;7.85;;;7.10;99.90;;;;;;4936398;28;20126;-84
2021/12/18 08:42:51;;;;;;;32.92;7.53;;;7.20;99.90;;;;;;4949780;28;20376;-83
2021/12/18 08:45:17;;;;;;;30.40;7.25;;;7.20;99.90;;;;;;4922262;28;20041;-84
2021/12/18 08:47:43;;;;;;;35.97;7.75;;;7.20;99.90;;;;;;4920371;28;20134;-84
2021/12/18 08:50:13;;;;;;;30.42;6.82;;;7.30;99.90;;;;;;4932067;28;20118;-83
2021/12/18 08:52:39;;;;;;;33.83;7.28;;;7.30;99.90;;;;;;4956945;28;20046;-84
2021/12/18 08:55:06;;;;;;;27.85;7.18;;;7.40;99.90;;;;;;4951398;28;20042;-84
2021/12/18 08:57:32;;;;;;;30.63;7.80;;;7.40;99.90;;;;;;4935002;28;20097;-84
2021/12/18 08:59:58;;;;;;;31.83;6.63;;;7.40;99.90;;;;;;4912481;28;20043;-84
2021/12/18 09:02:24;;;;;;;37.72;8.27;;;7.50;99.90;;;;;;4949967;28;20088;-84
2021/12/18 09:04:51;;;;;;;32.83;8.13;;;7.50;99.90;;;;;;4936140;28;20039;-84
2021/12/18 09:07:17;;;;;;;23.40;7.00;;;7.60;99.90;;;;;;4947712;28;20066;-84
2021/12/18 09:09:44;;;;;;;31.55;7.13;;;7.60;99.90;;;;;;4941881;28;21796;-85
2021/12/18 09:12:11;;;;;;;28.65;6.60;;;7.60;99.90;;;;;;4957763;28;20505;-84
2021/12/18 09:14:38;;;;;;;26.25;6.47;;;7.70;99.90;;;;;;4959124;28;20042;-84
2021/12/18 09:17:05;;;;;;;28.38;6.90;;;7.70;99.90;;;;;;4937464;28;20132;-84
2021/12/18 09:19:31;;;;;;;34.05;7.53;;;7.70;99.90;;;;;;4934434;28;20038;-84
2021/12/18 09:21:58;;;;;;;21.70;6.10;;;7.70;99.90;;;;;;4931187;28;20046;-84
2021/12/18 09:24:24;;;;;;;26.90;6.43;;;7.80;99.90;;;;;;4929167;28;20074;-84
2021/12/18 09:26:51;;;;;;;19.30;6.32;;;7.80;99.90;;;;;;4920970;28;20034;-84
2021/12/18 09:29:18;;;;;;;21.65;5.50;;;7.80;99.90;;;;;;4945975;28;20140;-84
2021/12/18 09:31:44;;;;;;;19.83;6.15;;;7.90;99.90;;;;;;4932733;28;20050;-84
2021/12/18 09:34:10;;;;;;;29.25;6.55;;;7.90;99.90;;;;;;4949876;28;20034;-83
2021/12/18 09:36:36;;;;;;;19.10;7.53;;;7.90;99.90;;;;;;4949863;28;20136;-85
2021/12/18 09:39:03;;;;;;;27.98;6.40;;;8.00;99.90;;;;;;4943843;28;20548;-84
2021/12/18 09:41:29;;;;;;;26.60;5.70;;;8.00;99.90;;;;;;4927490;28;20501;-85
2021/12/18 09:43:55;;;;;;;23.27;5.28;;;8.00;99.90;;;;;;4932544;28;20101;-82
2021/12/18 09:46:20;;;;;;;12.80;4.30;;;8.00;99.90;;;;;;4918163;28;20490;-84
2021/12/18 09:48:52;;;;;;;21.20;4.90;;;8.00;99.90;;;;;;4939344;28;20090;-84
2021/12/18 09:51:24;;;;;;;19.25;5.05;;;8.10;99.90;;;;;;4912220;28;20042;-85
2021/12/18 09:53:52;;;;;;;17.08;4.30;;;8.10;99.90;;;;;;4895587;28;20128;-85
2021/12/18 09:56:18;;;;;;;12.15;3.75;;;8.10;99.90;;;;;;4927636;28;20057;-83
2021/12/18 09:58:44;;;;;;;17.23;4.88;;;8.10;99.90;;;;;;4947087;28;20042;-82
2021/12/18 10:01:10;;;;;;;13.57;4.18;;;8.10;99.90;;;;;;4927131;28;20041;-83
2021/12/18 10:03:49;;;;;;;18.52;4.65;;;8.20;99.90;;;;;;4948958;28;20039;-84
2021/12/18 10:06:33;;;;;;;15.13;4.18;;;8.20;99.90;;;;;;4943310;28;20097;-84
2021/12/18 10:08:59;;;;;;;14.90;4.55;;;8.20;99.90;;;;;;4930767;28;20101;-84
2021/12/18 10:11:25;;;;;;;15.70;4.00;;;8.20;99.90;;;;;;4916190;28;20180;-83
2021/12/18 10:13:59;;;;;;;16.63;4.50;;;8.30;99.90;;;;;;4918008;28;20066;-85
2021/12/18 10:16:27;;;;;;;17.83;3.95;;;8.30;99.90;;;;;;4935372;28;20039;-83
2021/12/18 10:18:54;;;;;;;15.50;4.10;;;8.30;99.90;;;;;;4942774;28;20042;-84
2021/12/18 10:21:23;;;;;;;13.90;3.50;;;8.30;99.90;;;;;;4947030;28;20065;-84
2021/12/18 10:23:50;;;;;;;19.27;3.90;;;8.40;99.90;;;;;;4943835;28;20035;-85
2021/12/18 10:26:37;;;;;;;18.13;4.30;;;8.40;99.90;;;;;;4933033;28;20411;-84
2021/12/18 10:29:22;;;;;;;19.67;3.75;;;8.40;99.90;;;;;;4926733;28;20038;-82
2021/12/18 10:31:49;;;;;;;18.88;3.80;;;8.40;99.90;;;;;;4934965;28;20049;-84
2021/12/18 10:34:24;;;;;;;14.32;3.70;;;8.40;99.90;;;;;;4927516;28;20065;-84
2021/12/18 10:37:11;;;;;;;14.40;3.60;;;8.50;99.90;;;;;;4946585;28;20034;-82
2021/12/18 10:39:58;;;;;;;14.88;3.30;;;8.50;99.90;;;;;;4928913;28;20054;-83
2021/12/18 10:42:29;;;;;;;13.93;3.58;;;8.50;99.90;;;;;;4932932;28;20053;-82
2021/12/18 10:45:02;;;;;;;14.70;3.58;;;8.50;99.90;;;;;;4938896;28;20405;-83
2021/12/18 10:47:47;;;;;;;11.48;3.50;;;8.50;99.90;;;;;;4927916;28;20049;-83
2021/12/18 10:50:34;;;;;;;16.23;3.47;;;8.50;99.90;;;;;;4930087;28;20200;-82
2021/12/18 10:52:59;;;;;;;15.85;3.35;;;8.50;99.90;;;;;;4931122;28;20051;-82
2021/12/18 10:55:37;;;;;;;15.07;3.33;;;8.50;99.90;;;;;;4951393;28;20395;-83
2021/12/18 10:58:08;;;;;;;16.40;3.58;;;8.60;99.90;;;;;;4940399;28;20387;-83
2021/12/18 11:00:58;;;;;;;12.25;3.47;;;8.60;99.90;;;;;;4945790;28;20231;-84
2021/12/18 11:03:29;;;;;;;18.08;4.28;;;8.60;99.90;;;;;;4931891;28;20422;-84
2021/12/18 11:06:31;;;;;;;19.00;4.53;;;8.60;99.90;;;;;;4945087;28;20533;-84
2021/12/18 11:09:14;;;;;;;25.50;5.82;;;8.60;99.90;;;;;;4899535;28;20058;-84
2021/12/18 11:14:08;;;;;;;14.15;4.40;;;8.70;99.90;;;;;;4946059;28;19929;-84
2021/12/18 11:16:36;;;;;;;21.60;4.88;;;8.70;99.90;;;;;;4947071;28;20192;-82
2021/12/18 11:19:24;;;;;;;21.40;4.22;;;8.70;99.90;;;;;;4912963;28;20038;-84
2021/12/18 11:21:56;;;;;;;14.15;4.45;;;8.70;99.90;;;;;;4964929;28;20164;-83
2021/12/18 11:24:30;;;;;;;17.48;4.60;;;8.80;99.90;;;;;;4933495;28;21196;-83
2021/12/18 11:27:00;;;;;;;17.10;5.00;;;8.80;99.90;;;;;;4935252;28;20632;-84
2021/12/18 11:29:34;;;;;;;13.75;4.50;;;8.80;99.90;;;;;;4946035;28;20038;-81
2021/12/18 11:32:01;;;;;;;15.02;4.57;;;8.80;99.90;;;;;;4948176;28;20581;-85
2021/12/18 11:34:27;;;;;;;18.83;5.10;;;8.80;99.90;;;;;;4917900;28;20034;-84
2021/12/18 11:36:54;;;;;;;10.98;4.68;;;8.80;99.90;;;;;;4899221;28;20072;-84
2021/12/18 11:39:24;;;;;;;16.60;5.25;;;8.80;99.90;;;;;;4912009;28;20057;-84
2021/12/18 11:41:55;;;;;;;13.88;4.53;;;8.80;99.90;;;;;;4963262;28;20049;-85
2021/12/18 11:44:35;;;;;;;13.97;5.00;;;8.80;99.90;;;;;;4930126;28;20082;-84
2021/12/18 11:47:34;;;;;;;12.65;4.85;;;8.80;99.90;;;;;;4941239;28;20371;-84
2021/12/18 11:50:28;;;;;;;14.70;4.72;;;8.80;99.90;;;;;;4895749;28;20606;-85
2021/12/18 11:52:57;;;;;;;11.82;4.30;;;8.80;99.90;;;;;;4927635;28;20038;-85
2021/12/18 11:55:35;;;;;;;12.30;5.22;;;8.80;99.90;;;;;;4928788;28;20275;-83
2021/12/18 11:58:12;;;;;;;11.20;4.53;;;8.80;99.90;;;;;;4938633;28;20074;-85
2021/12/18 12:00:46;;;;;;;13.38;4.88;;;8.80;99.90;;;;;;4935277;28;20046;-84
2021/12/18 12:03:26;;;;;;;14.13;5.03;;;8.90;99.90;;;;;;4925785;28;20051;-84
2021/12/18 12:05:53;;;;;;;19.35;5.55;;;8.90;99.90;;;;;;4931279;28;20133;-85
2021/12/18 12:08:41;;;;;;;17.45;5.50;;;8.90;99.90;;;;;;4953581;28;20054;-85
2021/12/18 12:11:33;;;;;;;16.13;5.53;;;8.90;99.90;;;;;;4927829;28;20038;-84
2021/12/18 12:14:08;;;;;;;19.10;4.93;;;8.90;99.90;;;;;;4947733;28;20057;-84
2021/12/18 12:16:44;;;;;;;18.80;5.00;;;8.90;99.90;;;;;;4934690;28;20314;-85
2021/12/18 12:19:24;;;;;;;16.30;4.70;;;8.90;99.90;;;;;;4946064;28;20449;-85
2021/12/18 12:21:53;;;;;;;14.15;5.00;;;8.90;99.90;;;;;;4928687;28;20035;-84
2021/12/18 12:24:26;;;;;;;15.20;5.43;;;8.90;99.90;;;;;;4931150;28;20424;-84
2021/12/18 12:26:54;;;;;;;17.60;4.63;;;8.90;99.90;;;;;;4938246;28;20045;-85
2021/12/18 12:29:21;;;;;;;12.07;4.55;;;8.90;99.90;;;;;;4936319;28;20048;-84
2021/12/18 12:31:58;;;;;;;14.05;3.95;;;8.90;99.90;;;;;;4939184;28;20053;-84
2021/12/18 12:34:34;;;;;;;12.98;3.30;;;9.00;99.90;;;;;;4943409;28;20504;-85
2021/12/18 12:37:21;;;;;;;11.48;2.90;;;8.90;99.90;;;;;;4958750;28;20050;-85
2021/12/18 12:40:14;;;;;;;12.15;3.22;;;8.90;99.90;;;;;;4946018;28;20044;-85
2021/12/18 12:43:01;;;;;;;11.30;3.67;;;8.90;99.90;;;;;;4937869;28;20057;-85
2021/12/18 12:45:38;;;;;;;8.15;2.97;;;8.90;99.90;;;;;;4937323;28;20042;-85
2021/12/18 12:48:04;;;;;;;12.07;2.85;;;8.90;99.90;;;;;;4917281;28;20390;-86
2021/12/18 12:50:31;;;;;;;12.65;2.72;;;8.90;99.90;;;;;;4941223;28;20034;-84
2021/12/18 12:53:03;;;;;;;9.38;2.90;;;8.90;99.90;;;;;;4937750;28;20405;-86
2021/12/18 12:55:37;;;;;;;14.55;3.20;;;9.00;99.90;;;;;;4930104;28;20509;-84
2021/12/18 12:58:03;;;;;;;11.70;2.85;;;8.90;99.90;;;;;;4944861;28;20085;-83
2021/12/18 13:00:29;;;;;;;8.63;3.30;;;9.00;99.90;;;;;;4945385;28;20046;-83
2021/12/18 13:03:01;;;;;;;14.95;3.20;;;9.00;99.90;;;;;;4929945;28;20030;-83
2021/12/18 13:05:28;;;;;;;11.10;3.70;;;9.00;99.90;;;;;;4933373;28;20050;-83
2021/12/18 13:07:59;;;;;;;12.85;3.08;;;9.00;99.90;;;;;;4924299;28;20034;-83
2021/12/18 13:10:29;;;;;;;14.48;3.10;;;9.00;99.90;;;;;;4929921;28;21933;-83
2021/12/18 13:12:55;;;;;;;12.00;3.05;;;9.00;99.90;;;;;;4953850;28;20382;-84
2021/12/18 13:15:23;;;;;;;13.50;3.25;;;9.00;99.90;;;;;;4959865;28;20085;-84
2021/12/18 13:18:07;;;;;;;12.85;2.70;;;9.00;99.90;;;;;;4918250;28;20042;-85
2021/12/18 13:20:42;;;;;;;10.00;2.70;;;9.00;99.90;;;;;;4936760;28;20104;-83
2021/12/18 13:23:08;;;;;;;11.77;2.85;;;9.00;99.90;;;;;;4934862;28;20431;-84
2021/12/18 13:25:44;;;;;;;11.95;2.63;;;9.00;99.90;;;;;;4931559;28;20520;-84
2021/12/18 13:28:10;;;;;;;9.98;2.53;;;9.00;99.90;;;;;;4936210;28;20058;-84
2021/12/18 13:30:36;;;;;;;7.80;2.63;;;8.90;99.90;;;;;;4938675;28;20038;-84
2021/12/18 13:33:06;;;;;;;9.52;2.60;;;8.90;99.90;;;;;;4935788;28;20054;-83
2021/12/18 13:35:34;;;;;;;13.32;3.08;;;8.90;99.90;;;;;;4935185;28;20042;-83
2021/12/18 13:38:09;;;;;;;12.85;2.75;;;8.90;99.90;;;;;;4929065;28;20073;-84
2021/12/18 13:40:38;;;;;;;12.70;3.00;;;8.90;99.90;;;;;;4936201;28;20119;-84
2021/12/18 13:43:06;;;;;;;14.73;2.47;;;8.90;99.90;;;;;;4932788;28;20525;-83
2021/12/18 13:45:34;;;;;;;10.00;2.70;;;8.90;99.90;;;;;;4963763;28;20038;-83